createdAt,value
2022-10-26T00:01:51.512Z,72.70
2022-10-26T00:04:19.999Z,72.80
2022-10-26T00:06:48.572Z,72.70
2022-10-26T00:09:15.489Z,72.70
2022-10-26T00:11:42.470Z,72.70
2022-10-26T00:14:09.164Z,72.70
2022-10-26T00:16:36.082Z,72.70
2022-10-26T00:19:05.331Z,72.80
2022-10-26T00:21:35.416Z,72.70
2022-10-26T00:24:02.105Z,73.20
2022-10-26T00:26:28.799Z,72.70
2022-10-26T00:28:57.857Z,72.70
2022-10-26T00:31:25.054Z,72.70
2022-10-26T00:34:00.333Z,72.70
2022-10-26T00:36:27.465Z,72.70
2022-10-26T00:39:03.197Z,72.70
2022-10-26T00:41:32.389Z,72.70
2022-10-26T00:44:00.700Z,72.70
2022-10-26T00:46:35.400Z,72.70
2022-10-26T00:49:33.419Z,72.70
2022-10-26T00:52:01.921Z,72.60
2022-10-26T00:57:32.040Z,72.70
2022-10-26T01:00:08.161Z,72.60
2022-10-26T01:02:35.888Z,72.60
2022-10-26T01:05:04.866Z,72.70
2022-10-26T01:07:32.869Z,72.60
2022-10-26T01:10:09.440Z,72.60
2022-10-26T01:12:37.266Z,72.60
2022-10-26T01:15:05.649Z,72.60
2022-10-26T01:17:54.445Z,72.60
2022-10-26T01:20:51.656Z,72.60
2022-10-26T01:23:41.564Z,72.60
2022-10-26T01:26:14.608Z,72.60
2022-10-26T01:28:51.993Z,72.60
2022-10-26T01:31:27.365Z,72.60
2022-10-26T01:34:08.947Z,72.60
2022-10-26T01:36:54.491Z,72.60
2022-10-26T01:39:43.648Z,72.60
2022-10-26T01:42:16.981Z,72.60
2022-10-26T01:44:53.523Z,72.60
2022-10-26T01:47:21.406Z,72.60
2022-10-26T01:50:00.585Z,72.60
2022-10-26T01:52:31.307Z,72.60
2022-10-26T01:55:03.933Z,72.60
2022-10-26T01:57:37.159Z,72.60
2022-10-26T02:00:04.077Z,72.60
2022-10-26T02:03:04.899Z,72.60
2022-10-26T02:05:58.129Z,72.50
2022-10-26T02:08:51.087Z,72.60
2022-10-26T02:11:40.330Z,72.50
2022-10-26T02:14:18.854Z,72.50
2022-10-26T02:16:56.726Z,72.50
2022-10-26T02:19:43.598Z,72.50
2022-10-26T02:22:25.577Z,72.50
2022-10-26T02:24:56.943Z,72.50
2022-10-26T02:27:28.571Z,72.50
2022-10-26T02:30:05.045Z,72.50
2022-10-26T02:32:37.126Z,72.50
2022-10-26T02:35:25.561Z,72.50
2022-10-26T02:38:12.661Z,72.50
2022-10-26T02:40:59.451Z,72.40
2022-10-26T02:43:28.167Z,72.50
2022-10-26T02:46:13.776Z,72.40
2022-10-26T02:48:41.242Z,72.40
2022-10-26T02:51:27.859Z,72.40
2022-10-26T02:54:18.412Z,72.40
2022-10-26T02:56:53.444Z,72.40
2022-10-26T02:59:23.136Z,72.40
2022-10-26T03:01:59.699Z,72.40
2022-10-26T03:04:31.544Z,72.40
2022-10-26T03:06:59.504Z,72.90
2022-10-26T03:09:26.278Z,72.40
2022-10-26T03:11:53.920Z,72.40
2022-10-26T03:14:20.961Z,72.30
2022-10-26T03:16:49.326Z,72.40
2022-10-26T03:19:16.204Z,72.40
2022-10-26T03:21:43.359Z,72.40
2022-10-26T03:24:10.762Z,72.40
2022-10-26T03:26:37.535Z,72.80
2022-10-26T03:29:04.392Z,72.40
2022-10-26T03:31:31.067Z,72.40
2022-10-26T03:33:57.751Z,72.40
2022-10-26T03:36:24.420Z,72.40
2022-10-26T03:38:51.136Z,72.40
2022-10-26T03:41:17.889Z,72.30
2022-10-26T03:43:46.685Z,72.30
2022-10-26T03:46:13.859Z,72.30
2022-10-26T03:48:40.507Z,72.30
2022-10-26T03:51:07.282Z,72.40
2022-10-26T03:53:34.411Z,72.30
2022-10-26T03:56:01.089Z,72.30
2022-10-26T03:58:27.754Z,72.30
2022-10-26T04:00:54.547Z,72.30
2022-10-26T04:03:21.234Z,72.30
2022-10-26T04:05:47.981Z,72.30
2022-10-26T04:08:14.840Z,72.30
2022-10-26T04:10:41.522Z,72.30
2022-10-26T04:13:11.023Z,72.30
2022-10-26T04:15:37.738Z,72.20
2022-10-26T04:18:04.493Z,72.30
2022-10-26T04:20:33.137Z,72.30
2022-10-26T04:23:05.239Z,72.20
2022-10-26T04:25:36.116Z,72.30
2022-10-26T04:28:05.693Z,72.30
2022-10-26T04:30:33.407Z,72.20
2022-10-26T04:33:00.413Z,72.20
2022-10-26T04:35:27.544Z,72.30
2022-10-26T04:38:01.961Z,72.30
2022-10-26T04:40:29.985Z,72.20
2022-10-26T04:42:56.780Z,72.30
2022-10-26T04:45:23.657Z,72.30
2022-10-26T04:50:51.902Z,72.30
2022-10-26T04:53:18.590Z,72.30
2022-10-26T04:55:45.330Z,72.30
2022-10-26T04:58:12.574Z,72.30
2022-10-26T05:00:39.269Z,72.20
2022-10-26T05:03:07.958Z,72.30
2022-10-26T05:05:36.596Z,72.20
2022-10-26T05:08:04.059Z,72.20
2022-10-26T05:10:31.136Z,72.20
2022-10-26T05:13:00.090Z,72.20
2022-10-26T05:15:27.695Z,72.10
2022-10-26T05:17:59.871Z,72.10
2022-10-26T05:20:30.163Z,72.10
2022-10-26T05:23:01.666Z,72.10
2022-10-26T05:25:30.801Z,72.10
2022-10-26T05:27:59.062Z,72.10
2022-10-26T05:30:25.862Z,72.10
2022-10-26T05:32:56.301Z,72.20
2022-10-26T05:35:23.701Z,72.10
2022-10-26T05:37:50.375Z,72.10
2022-10-26T05:40:17.879Z,72.10
2022-10-26T05:42:45.371Z,72.10
2022-10-26T05:45:13.598Z,72.10
2022-10-26T05:47:45.525Z,72.10
2022-10-26T05:50:13.443Z,72.10
2022-10-26T05:52:41.036Z,72.10
2022-10-26T05:55:12.937Z,72.20
2022-10-26T05:57:40.451Z,72.20
2022-10-26T06:00:14.876Z,72.10
2022-10-26T06:02:54.657Z,71.80
2022-10-26T06:05:28.257Z,71.70
2022-10-26T06:07:55.336Z,71.20
2022-10-26T06:10:22.528Z,69.40
2022-10-26T06:12:49.871Z,68.30
2022-10-26T06:15:19.995Z,67.80
2022-10-26T06:18:04.359Z,67.40
2022-10-26T06:20:59.213Z,67.20
2022-10-26T06:23:54.963Z,67.20
2022-10-26T06:26:29.739Z,66.90
2022-10-26T06:29:28.672Z,66.60
2022-10-26T06:31:55.476Z,66.60
2022-10-26T06:34:34.124Z,66.60
2022-10-26T06:37:02.390Z,66.50
2022-10-26T06:39:35.198Z,66.40
2022-10-26T06:42:02.341Z,66.80
2022-10-26T06:44:29.355Z,67.10
2022-10-26T06:47:21.181Z,67.70
2022-10-26T06:50:13.233Z,68.10
2022-10-26T06:52:57.476Z,68.40
2022-10-26T06:55:26.798Z,68.60
2022-10-26T06:57:53.895Z,68.70
2022-10-26T07:00:23.317Z,63.60
2022-10-26T07:02:50.509Z,63.80
2022-10-26T07:05:17.731Z,63.90
2022-10-26T07:07:46.937Z,63.90
2022-10-26T07:10:14.929Z,63.90
2022-10-26T07:12:41.681Z,64.00
2022-10-26T07:17:49.191Z,64.10
2022-10-26T07:20:18.173Z,64.20
2022-10-26T07:22:44.993Z,64.70
2022-10-26T07:25:12.447Z,64.30
2022-10-26T07:27:39.219Z,64.40
2022-10-26T07:30:06.498Z,64.30
2022-10-26T07:32:33.271Z,64.50
2022-10-26T07:34:59.959Z,64.50
2022-10-26T07:37:26.641Z,64.60
2022-10-26T07:39:53.384Z,64.60
2022-10-26T07:42:20.075Z,64.60
2022-10-26T07:44:46.808Z,64.60
2022-10-26T07:47:13.629Z,64.80
2022-10-26T07:49:40.595Z,64.70
2022-10-26T07:52:07.385Z,64.80
2022-10-26T07:54:34.042Z,65.00
2022-10-26T07:57:01.109Z,64.90
2022-10-26T07:59:28.012Z,64.90
2022-10-26T08:01:54.818Z,64.90
2022-10-26T08:04:21.582Z,65.00
2022-10-26T08:06:48.797Z,65.00
2022-10-26T08:09:15.513Z,65.00
2022-10-26T08:11:42.216Z,65.00
2022-10-26T08:14:10.987Z,65.00
2022-10-26T08:16:40.234Z,65.00
2022-10-26T08:19:07.875Z,65.00
2022-10-26T08:21:41.778Z,65.00
2022-10-26T08:24:08.684Z,65.30
2022-10-26T08:26:35.543Z,65.20
2022-10-26T08:29:02.247Z,65.20
2022-10-26T08:31:28.940Z,65.10
2022-10-26T08:33:55.637Z,65.00
2022-10-26T08:36:27.308Z,65.00
2022-10-26T08:38:54.059Z,65.10
2022-10-26T08:41:33.284Z,65.20
2022-10-26T08:44:13.325Z,65.30
2022-10-26T08:46:45.635Z,65.40
2022-10-26T08:49:24.318Z,65.30
2022-10-26T08:59:53.879Z,73.60
2022-10-26T09:02:21.294Z,72.20
2022-10-26T09:04:48.053Z,72.10
2022-10-26T09:07:39.166Z,72.60
2022-10-26T09:10:31.475Z,72.20
2022-10-26T09:13:32.325Z,72.30
2022-10-26T09:16:23.810Z,72.40
2022-10-26T09:19:18.572Z,72.30
2022-10-26T09:22:04.096Z,72.30
2022-10-26T09:24:38.803Z,72.30
2022-10-26T09:27:16.096Z,72.40
2022-10-26T09:29:43.941Z,72.40
2022-10-26T09:32:17.763Z,73.00
2022-10-26T09:34:52.349Z,72.40
2022-10-26T09:37:24.790Z,72.50
2022-10-26T09:40:07.656Z,72.40
2022-10-26T09:42:48.794Z,72.40
2022-10-26T09:45:27.571Z,72.40
2022-10-26T09:47:56.699Z,72.50
2022-10-26T09:50:35.034Z,72.50
2022-10-26T09:53:02.253Z,72.50
2022-10-26T09:55:31.110Z,72.60
2022-10-26T09:58:02.262Z,72.50
2022-10-26T10:00:30.637Z,72.60
2022-10-26T10:02:58.622Z,72.60
2022-10-26T10:05:50.693Z,72.60
2022-10-26T10:08:26.720Z,72.60
2022-10-26T10:10:55.349Z,72.70
2022-10-26T10:13:24.205Z,72.50
2022-10-26T10:15:56.579Z,72.60
2022-10-26T10:18:23.838Z,72.70
2022-10-26T10:20:56.969Z,72.70
2022-10-26T10:23:28.562Z,72.70
2022-10-26T10:26:12.038Z,72.70
2022-10-26T10:28:40.972Z,72.50
2022-10-26T10:31:26.732Z,72.50
2022-10-26T10:33:54.317Z,72.60
2022-10-26T10:36:24.526Z,72.60
2022-10-26T10:38:52.676Z,72.60
2022-10-26T10:41:30.036Z,72.60
2022-10-26T10:44:19.409Z,72.60
2022-10-26T10:46:47.141Z,72.50
2022-10-26T10:49:27.476Z,72.60
2022-10-26T10:51:56.395Z,72.60
2022-10-26T10:54:35.867Z,72.70
2022-10-26T10:57:30.866Z,72.60
2022-10-26T11:00:00.459Z,72.60
2022-10-26T11:02:58.179Z,72.70
2022-10-26T11:05:27.349Z,72.60
2022-10-26T11:08:02.742Z,72.70
2022-10-26T11:10:36.178Z,72.60
2022-10-26T11:13:10.595Z,72.70
2022-10-26T11:15:40.908Z,72.60
2022-10-26T11:18:07.644Z,72.70
2022-10-26T11:20:39.659Z,72.70
2022-10-26T11:23:20.805Z,72.70
2022-10-26T11:25:51.676Z,72.70
2022-10-26T11:28:39.294Z,72.70
2022-10-26T11:31:13.502Z,72.70
2022-10-26T11:36:25.889Z,72.80
2022-10-26T11:38:57.603Z,72.80
2022-10-26T11:42:09.363Z,72.90
2022-10-26T11:44:52.607Z,72.90
2022-10-26T11:47:34.794Z,72.90
2022-10-26T11:50:32.663Z,73.00
2022-10-26T11:53:19.199Z,73.00
2022-10-26T11:55:53.026Z,73.00
2022-10-26T11:58:26.758Z,73.10
2022-10-26T12:01:02.638Z,73.10
2022-10-26T12:03:35.329Z,73.20
2022-10-26T12:06:02.440Z,73.10
2022-10-26T12:08:43.587Z,73.40
2022-10-26T12:11:28.334Z,73.40
2022-10-26T12:14:01.443Z,73.50
2022-10-26T12:16:40.325Z,73.30
2022-10-26T12:19:19.342Z,73.40
2022-10-26T12:21:48.339Z,73.60
2022-10-26T12:24:24.172Z,73.60
2022-10-26T12:26:51.862Z,73.50
2022-10-26T12:29:30.051Z,73.50
2022-10-26T12:31:57.360Z,69.50
2022-10-26T12:34:30.255Z,69.70
2022-10-26T12:36:56.970Z,69.80
2022-10-26T12:39:26.720Z,69.70
2022-10-26T12:42:06.653Z,69.80
2022-10-26T12:44:45.446Z,69.80
2022-10-26T12:47:30.266Z,69.50
2022-10-26T12:50:05.932Z,69.70
2022-10-26T12:52:47.415Z,69.70
2022-10-26T12:55:33.236Z,69.60
2022-10-26T13:52:38.100Z,71.40
2022-10-26T13:55:14.176Z,71.20
2022-10-26T13:57:44.862Z,69.40
2022-10-26T14:00:22.467Z,68.80
2022-10-26T14:02:49.676Z,69.30
2022-10-26T14:05:18.838Z,69.70
2022-10-26T14:07:58.153Z,69.90
2022-10-26T14:10:38.909Z,71.50
2022-10-26T14:13:13.346Z,72.00
2022-10-26T14:15:44.652Z,71.40
2022-10-26T14:18:31.449Z,71.90
2022-10-26T14:21:07.378Z,71.30
2022-10-26T14:23:37.419Z,70.80
2022-10-26T14:26:05.061Z,70.40
2022-10-26T14:28:38.849Z,70.80
2022-10-26T14:31:16.577Z,70.70
2022-10-26T14:33:46.472Z,70.30
2022-10-26T14:36:15.024Z,71.00
2022-10-26T14:38:53.049Z,71.10
2022-10-26T14:41:21.910Z,71.60
2022-10-26T14:43:49.102Z,71.60
2022-10-26T14:46:17.878Z,72.60
2022-10-26T14:48:56.672Z,73.20
2022-10-26T14:51:34.467Z,73.60
2022-10-26T14:54:02.381Z,74.30
2022-10-26T14:56:36.805Z,74.10
2022-10-26T14:59:27.467Z,74.40
2022-10-26T15:02:20.257Z,73.10
2022-10-26T15:05:04.584Z,73.00
2022-10-26T15:07:37.470Z,73.30
2022-10-26T15:10:05.845Z,73.20
2022-10-26T15:12:34.246Z,74.30
2022-10-26T15:15:16.007Z,75.20
2022-10-26T15:17:49.794Z,75.50
2022-10-26T15:20:19.704Z,75.90
2022-10-26T15:23:13.293Z,75.80
2022-10-26T15:25:48.791Z,76.90
2022-10-26T15:28:39.699Z,77.30
2022-10-26T15:31:06.398Z,78.20
2022-10-26T15:33:34.098Z,78.50
2022-10-26T15:36:21.263Z,78.40
2022-10-26T15:38:48.454Z,78.90
2022-10-26T15:41:36.785Z,81.70
2022-10-26T15:44:11.447Z,83.30
2022-10-26T15:46:39.082Z,85.30
2022-10-26T15:49:08.179Z,86.70
2022-10-26T15:51:35.162Z,87.20
2022-10-26T15:54:05.422Z,88.60
2022-10-26T15:56:32.686Z,90.00
2022-10-26T15:58:59.626Z,90.50
2022-10-26T16:01:28.700Z,90.90
2022-10-26T16:03:56.004Z,91.30
2022-10-26T16:06:31.892Z,91.90
2022-10-26T16:09:01.718Z,92.30
2022-10-26T16:11:29.462Z,92.90
2022-10-26T16:13:58.368Z,93.40
2022-10-26T16:16:28.134Z,94.70
2022-10-26T16:19:11.895Z,95.10
2022-10-26T16:21:43.799Z,95.20
2022-10-26T16:24:10.675Z,95.70
2022-10-26T16:26:37.546Z,96.00
2022-10-26T16:29:04.382Z,96.50
2022-10-26T16:31:31.087Z,97.30
2022-10-26T16:34:00.347Z,98.00
2022-10-26T16:36:32.872Z,98.40
2022-10-26T16:38:59.833Z,99.00
2022-10-26T16:41:26.658Z,99.90
2022-10-26T16:43:53.436Z,99.90
2022-10-26T16:46:22.403Z,99.90
2022-10-26T16:48:50.115Z,99.90
2022-10-26T16:51:29.007Z,99.90
2022-10-26T16:53:57.411Z,99.90
2022-10-26T16:56:29.277Z,99.90
2022-10-26T16:58:56.906Z,99.90
2022-10-26T17:01:24.322Z,99.90
2022-10-26T17:03:53.098Z,99.90
2022-10-26T17:06:20.744Z,99.90
2022-10-26T17:08:47.911Z,99.90
2022-10-26T17:11:20.660Z,99.90
2022-10-26T17:13:48.519Z,99.90
2022-10-26T17:16:20.451Z,99.90
2022-10-26T17:18:48.120Z,99.90
2022-10-26T17:21:17.541Z,99.90
2022-10-26T17:23:44.484Z,99.90
2022-10-26T17:26:13.022Z,99.90
2022-10-26T17:28:40.311Z,99.90
2022-10-26T17:31:14.924Z,99.90
2022-10-26T17:33:43.170Z,99.90
2022-10-26T17:36:12.612Z,99.90
2022-10-26T17:38:41.376Z,99.90
2022-10-26T17:41:13.780Z,99.90
2022-10-26T17:43:41.982Z,99.90
2022-10-26T17:46:17.862Z,99.90
2022-10-26T17:48:45.268Z,99.90
2022-10-26T17:51:14.987Z,99.90
2022-10-26T17:53:41.909Z,99.90
2022-10-26T17:56:14.877Z,99.90
2022-10-26T17:58:41.813Z,99.90
2022-10-26T18:01:11.246Z,99.90
2022-10-26T18:03:39.284Z,99.90
2022-10-26T18:06:07.740Z,99.90
2022-10-26T18:08:36.226Z,99.90
2022-10-26T18:11:04.549Z,99.90
2022-10-26T18:13:33.840Z,99.90
2022-10-26T18:16:28.530Z,99.90
2022-10-26T18:19:00.641Z,99.90
2022-10-26T18:21:30.495Z,99.90
2022-10-26T18:23:59.307Z,99.90
2022-10-26T18:26:30.921Z,99.90
2022-10-26T18:28:58.912Z,99.90
2022-10-26T18:31:29.691Z,99.90
2022-10-26T18:34:04.898Z,99.90
2022-10-26T18:36:50.580Z,99.90
2022-10-26T18:39:18.139Z,99.90
2022-10-26T18:41:44.957Z,99.90
2022-10-26T18:44:13.695Z,99.90
2022-10-26T18:46:43.344Z,99.90
2022-10-26T18:49:10.379Z,99.90
2022-10-26T18:51:37.174Z,99.90
2022-10-26T18:54:04.310Z,99.90
2022-10-26T18:56:32.494Z,99.90
2022-10-26T18:59:00.594Z,99.90
2022-10-26T19:01:33.994Z,99.90
2022-10-26T19:04:06.219Z,99.90
2022-10-26T19:06:39.334Z,99.90
2022-10-26T19:09:08.249Z,99.90
2022-10-26T19:11:35.582Z,99.90
2022-10-26T19:14:03.654Z,99.90
2022-10-26T19:16:50.590Z,99.90
2022-10-26T19:19:19.837Z,99.90
2022-10-26T19:21:49.695Z,99.90
2022-10-26T19:24:36.539Z,99.90
2022-10-26T19:27:04.298Z,99.90
2022-10-26T19:29:36.020Z,99.90
2022-10-26T19:32:03.220Z,99.90
2022-10-26T19:34:41.657Z,99.90
2022-10-26T19:37:10.885Z,99.90
2022-10-26T19:39:37.616Z,99.90
2022-10-26T19:42:08.403Z,99.90
2022-10-26T19:44:35.224Z,99.90
2022-10-26T19:47:02.053Z,99.90
2022-10-26T19:49:28.903Z,99.90
2022-10-26T19:51:58.281Z,99.90
2022-10-26T19:54:26.233Z,99.90
2022-10-26T19:56:53.292Z,99.90
2022-10-26T19:59:20.247Z,99.90
2022-10-26T20:01:47.039Z,99.90
2022-10-26T20:04:13.915Z,99.90
2022-10-26T20:06:40.722Z,99.90
2022-10-26T20:09:09.352Z,99.90
2022-10-26T20:11:38.148Z,99.90
2022-10-26T20:14:07.482Z,99.90
2022-10-26T20:16:35.075Z,99.90
2022-10-26T20:19:02.085Z,99.90
2022-10-26T20:21:28.907Z,99.90
2022-10-26T20:23:56.744Z,99.90
2022-10-26T20:26:27.475Z,99.90
2022-10-26T20:28:55.853Z,99.90
2022-10-26T20:31:23.101Z,99.90
2022-10-26T20:33:55.616Z,99.90
2022-10-26T20:36:26.691Z,99.90
2022-10-26T20:38:54.616Z,99.90
2022-10-26T20:41:22.434Z,99.90
2022-10-26T20:43:51.302Z,99.90
2022-10-26T20:46:26.055Z,99.90
2022-10-26T20:48:54.764Z,99.90
2022-10-26T20:52:08.696Z,99.90
2022-10-26T20:54:44.806Z,99.90
2022-10-26T20:57:17.399Z,99.90
2022-10-26T21:00:07.750Z,99.90
2022-10-26T21:02:36.101Z,99.90
2022-10-26T21:05:05.967Z,99.90
2022-10-26T21:07:34.047Z,99.90
2022-10-26T21:10:00.786Z,99.90
2022-10-26T21:12:28.023Z,99.90
2022-10-26T21:14:56.166Z,99.90
2022-10-26T21:17:23.203Z,99.90
2022-10-26T21:19:53.706Z,99.90
2022-10-26T21:22:21.217Z,99.90
2022-10-26T21:24:47.970Z,99.90
2022-10-26T21:27:15.918Z,99.90
2022-10-26T21:29:42.601Z,99.90
2022-10-26T21:32:10.317Z,99.90
2022-10-26T21:34:39.623Z,99.90
2022-10-26T21:37:06.438Z,99.90
2022-10-26T21:39:33.491Z,99.90
2022-10-26T21:42:00.380Z,99.90
2022-10-26T21:44:44.054Z,99.90
2022-10-26T21:47:11.366Z,99.90
2022-10-26T21:49:38.868Z,99.90
2022-10-26T21:52:07.710Z,99.90
2022-10-26T21:54:34.788Z,99.90
2022-10-26T21:57:01.565Z,99.90
2022-10-26T21:59:29.074Z,99.90
2022-10-26T22:02:08.009Z,99.90
2022-10-26T22:04:34.880Z,99.90
2022-10-26T22:07:05.295Z,99.90
2022-10-26T22:09:40.752Z,99.90
2022-10-26T22:12:17.169Z,99.90
2022-10-26T22:17:17.150Z,99.90
2022-10-26T22:19:45.157Z,99.90
2022-10-26T22:22:11.941Z,99.90
2022-10-26T22:24:38.675Z,99.90
2022-10-26T22:27:08.973Z,99.90
2022-10-26T22:29:35.688Z,99.90
2022-10-26T22:32:03.430Z,99.90
2022-10-26T22:34:33.173Z,99.90
2022-10-26T22:36:59.917Z,99.90
2022-10-26T22:39:28.547Z,99.90
2022-10-26T22:44:38.815Z,99.90
2022-10-26T22:47:05.599Z,99.90
2022-10-26T22:49:32.293Z,99.90
2022-10-26T22:52:01.870Z,99.90
2022-10-26T22:54:29.554Z,99.90
2022-10-26T22:56:57.231Z,99.90
2022-10-26T22:59:39.492Z,99.90
2022-10-26T23:02:06.704Z,99.90
2022-10-26T23:04:33.531Z,99.90
2022-10-26T23:07:00.356Z,99.90
2022-10-26T23:09:27.117Z,99.90
2022-10-26T23:11:57.441Z,99.90
2022-10-26T23:14:27.228Z,99.90
2022-10-26T23:17:07.500Z,99.90
2022-10-26T23:19:34.200Z,99.90
2022-10-26T23:22:00.964Z,99.90
2022-10-26T23:24:30.516Z,99.90
2022-10-26T23:29:41.218Z,99.90
2022-10-26T23:32:10.148Z,99.90
2022-10-26T23:34:38.204Z,99.90
2022-10-26T23:37:05.759Z,99.90
2022-10-26T23:39:32.476Z,99.90
2022-10-26T23:41:59.390Z,99.90
2022-10-26T23:44:28.891Z,99.90
2022-10-26T23:46:59.946Z,99.90
2022-10-26T23:49:26.705Z,99.90
2022-10-26T23:51:59.595Z,99.90
2022-10-26T23:54:27.173Z,99.90
2022-10-26T23:56:53.880Z,99.90
2022-10-26T23:59:30.862Z,99.90
